sensor_id;sensor_type;location;lat;lon;timestamp;P1;durP1;ratioP1;P2;durP2;ratioP2
13592;SDS011;6867;50.998;4.250;2023-04-01T00:00:36;2.77;;;1.30;;
13592;SDS011;6867;50.998;4.250;2023-04-01T00:03:03;5.57;;;1.43;;
13592;SDS011;6867;50.998;4.250;2023-04-01T00:05:30;7.77;;;1.70;;
13592;SDS011;6867;50.998;4.250;2023-04-01T00:07:56;2.40;;;1.20;;
13592;SDS011;6867;50.998;4.250;2023-04-01T00:10:23;3.97;;;1.40;;
13592;SDS011;6867;50.998;4.250;2023-04-01T00:12:50;5.40;;;1.57;;
13592;SDS011;6867;50.998;4.250;2023-04-01T00:15:18;4.03;;;1.50;;
13592;SDS011;6867;50.998;4.250;2023-04-01T00:17:45;10.60;;;2.50;;
13592;SDS011;6867;50.998;4.250;2023-04-01T00:20:12;7.67;;;2.37;;
13592;SDS011;6867;50.998;4.250;2023-04-01T00:22:39;5.90;;;2.27;;
13592;SDS011;6867;50.998;4.250;2023-04-01T00:25:07;3.67;;;2.20;;
13592;SDS011;6867;50.998;4.250;2023-04-01T00:27:34;5.60;;;2.50;;
13592;SDS011;6867;50.998;4.250;2023-04-01T00:30:01;3.80;;;2.10;;
13592;SDS011;6867;50.998;4.250;2023-04-01T00:32:29;7.40;;;2.33;;
13592;SDS011;6867;50.998;4.250;2023-04-01T00:34:56;3.87;;;2.07;;
13592;SDS011;6867;50.998;4.250;2023-04-01T00:37:25;6.57;;;2.20;;
13592;SDS011;6867;50.998;4.250;2023-04-01T00:39:52;3.93;;;2.00;;
13592;SDS011;6867;50.998;4.250;2023-04-01T00:42:19;4.37;;;2.10;;
13592;SDS011;6867;50.998;4.250;2023-04-01T00:44:47;6.17;;;2.20;;
13592;SDS011;6867;50.998;4.250;2023-04-01T00:47:16;9.00;;;2.70;;
13592;SDS011;6867;50.998;4.250;2023-04-01T00:49:45;5.37;;;2.50;;
13592;SDS011;6867;50.998;4.250;2023-04-01T00:52:14;5.77;;;2.60;;
13592;SDS011;6867;50.998;4.250;2023-04-01T00:54:44;5.47;;;2.57;;
13592;SDS011;6867;50.998;4.250;2023-04-01T00:57:15;7.87;;;3.27;;
13592;SDS011;6867;50.998;4.250;2023-04-01T00:59:46;6.07;;;3.07;;
13592;SDS011;6867;50.998;4.250;2023-04-01T01:02:17;5.77;;;3.27;;
13592;SDS011;6867;50.998;4.250;2023-04-01T01:04:46;6.17;;;2.87;;
13592;SDS011;6867;50.998;4.250;2023-04-01T01:07:15;6.70;;;3.50;;
13592;SDS011;6867;50.998;4.250;2023-04-01T01:09:51;7.27;;;3.90;;
13592;SDS011;6867;50.998;4.250;2023-04-01T01:12:26;6.50;;;3.63;;
13592;SDS011;6867;50.998;4.250;2023-04-01T01:15:01;7.67;;;3.80;;
13592;SDS011;6867;50.998;4.250;2023-04-01T01:17:37;8.97;;;4.57;;
13592;SDS011;6867;50.998;4.250;2023-04-01T01:20:22;8.07;;;4.33;;
13592;SDS011;6867;50.998;4.250;2023-04-01T01:26:04;8.03;;;4.00;;
13592;SDS011;6867;50.998;4.250;2023-04-01T01:28:48;6.73;;;4.20;;
13592;SDS011;6867;50.998;4.250;2023-04-01T01:31:29;7.07;;;4.33;;
13592;SDS011;6867;50.998;4.250;2023-04-01T01:34:06;7.17;;;4.03;;
13592;SDS011;6867;50.998;4.250;2023-04-01T01:36:43;5.73;;;3.80;;
13592;SDS011;6867;50.998;4.250;2023-04-01T01:39:15;6.60;;;3.70;;
13592;SDS011;6867;50.998;4.250;2023-04-01T01:41:43;4.77;;;3.63;;
13592;SDS011;6867;50.998;4.250;2023-04-01T01:44:14;5.40;;;3.60;;
13592;SDS011;6867;50.998;4.250;2023-04-01T01:46:42;6.47;;;2.97;;
13592;SDS011;6867;50.998;4.250;2023-04-01T01:49:11;7.27;;;3.77;;
13592;SDS011;6867;50.998;4.250;2023-04-01T01:51:40;9.23;;;4.00;;
13592;SDS011;6867;50.998;4.250;2023-04-01T01:54:12;5.47;;;3.07;;
13592;SDS011;6867;50.998;4.250;2023-04-01T01:56:39;6.07;;;3.90;;
13592;SDS011;6867;50.998;4.250;2023-04-01T01:59:08;8.73;;;3.50;;
13592;SDS011;6867;50.998;4.250;2023-04-01T02:01:39;8.53;;;3.50;;
13592;SDS011;6867;50.998;4.250;2023-04-01T02:04:09;12.40;;;3.90;;
13592;SDS011;6867;50.998;4.250;2023-04-01T02:06:38;5.87;;;3.47;;
13592;SDS011;6867;50.998;4.250;2023-04-01T02:09:09;9.13;;;3.60;;
13592;SDS011;6867;50.998;4.250;2023-04-01T02:11:39;6.20;;;3.30;;
13592;SDS011;6867;50.998;4.250;2023-04-01T02:14:10;7.37;;;3.87;;
13592;SDS011;6867;50.998;4.250;2023-04-01T02:16:42;9.23;;;3.40;;
13592;SDS011;6867;50.998;4.250;2023-04-01T02:19:13;6.80;;;3.47;;
13592;SDS011;6867;50.998;4.250;2023-04-01T02:21:47;7.90;;;3.20;;
13592;SDS011;6867;50.998;4.250;2023-04-01T02:24:17;7.67;;;3.07;;
13592;SDS011;6867;50.998;4.250;2023-04-01T02:26:48;8.70;;;3.20;;
13592;SDS011;6867;50.998;4.250;2023-04-01T02:29:17;8.10;;;3.40;;
13592;SDS011;6867;50.998;4.250;2023-04-01T02:31:47;12.53;;;3.47;;
13592;SDS011;6867;50.998;4.250;2023-04-01T02:34:15;8.50;;;3.00;;
13592;SDS011;6867;50.998;4.250;2023-04-01T02:36:42;8.77;;;3.40;;
13592;SDS011;6867;50.998;4.250;2023-04-01T02:39:09;4.47;;;2.53;;
13592;SDS011;6867;50.998;4.250;2023-04-01T02:41:38;5.40;;;2.63;;
13592;SDS011;6867;50.998;4.250;2023-04-01T02:44:07;7.67;;;2.87;;
13592;SDS011;6867;50.998;4.250;2023-04-01T02:46:34;6.13;;;2.40;;
13592;SDS011;6867;50.998;4.250;2023-04-01T02:49:01;5.70;;;2.80;;
13592;SDS011;6867;50.998;4.250;2023-04-01T02:51:28;6.97;;;2.97;;
13592;SDS011;6867;50.998;4.250;2023-04-01T02:53:55;8.37;;;2.60;;
13592;SDS011;6867;50.998;4.250;2023-04-01T02:56:22;5.07;;;2.57;;
13592;SDS011;6867;50.998;4.250;2023-04-01T02:58:49;6.13;;;2.93;;
13592;SDS011;6867;50.998;4.250;2023-04-01T03:01:17;9.03;;;2.97;;
13592;SDS011;6867;50.998;4.250;2023-04-01T03:03:43;3.60;;;2.57;;
13592;SDS011;6867;50.998;4.250;2023-04-01T03:06:11;3.40;;;2.43;;
13592;SDS011;6867;50.998;4.250;2023-04-01T03:08:39;4.40;;;2.80;;
13592;SDS011;6867;50.998;4.250;2023-04-01T03:11:06;7.23;;;3.30;;
13592;SDS011;6867;50.998;4.250;2023-04-01T03:13:33;6.40;;;3.10;;
13592;SDS011;6867;50.998;4.250;2023-04-01T03:16:00;10.20;;;3.90;;
13592;SDS011;6867;50.998;4.250;2023-04-01T03:18:28;5.70;;;3.23;;
13592;SDS011;6867;50.998;4.250;2023-04-01T03:20:55;6.57;;;3.70;;
13592;SDS011;6867;50.998;4.250;2023-04-01T03:23:21;8.47;;;3.43;;
13592;SDS011;6867;50.998;4.250;2023-04-01T03:25:49;6.63;;;4.27;;
13592;SDS011;6867;50.998;4.250;2023-04-01T03:28:18;15.10;;;4.67;;
13592;SDS011;6867;50.998;4.250;2023-04-01T03:30:44;7.87;;;4.10;;
13592;SDS011;6867;50.998;4.250;2023-04-01T03:33:11;10.80;;;4.43;;
13592;SDS011;6867;50.998;4.250;2023-04-01T03:35:40;8.30;;;3.90;;
13592;SDS011;6867;50.998;4.250;2023-04-01T03:38:06;12.03;;;4.67;;
13592;SDS011;6867;50.998;4.250;2023-04-01T03:40:33;8.63;;;4.13;;
13592;SDS011;6867;50.998;4.250;2023-04-01T03:43:02;11.57;;;4.80;;
13592;SDS011;6867;50.998;4.250;2023-04-01T03:45:33;11.53;;;4.50;;
13592;SDS011;6867;50.998;4.250;2023-04-01T03:48:00;13.73;;;5.00;;
13592;SDS011;6867;50.998;4.250;2023-04-01T03:50:26;9.63;;;4.40;;
13592;SDS011;6867;50.998;4.250;2023-04-01T03:52:55;8.40;;;4.20;;
13592;SDS011;6867;50.998;4.250;2023-04-01T03:55:21;7.87;;;3.90;;
13592;SDS011;6867;50.998;4.250;2023-04-01T03:57:48;9.80;;;4.17;;
13592;SDS011;6867;50.998;4.250;2023-04-01T04:00:15;10.37;;;4.80;;
13592;SDS011;6867;50.998;4.250;2023-04-01T04:02:42;8.67;;;4.83;;
13592;SDS011;6867;50.998;4.250;2023-04-01T04:05:09;9.33;;;4.03;;
13592;SDS011;6867;50.998;4.250;2023-04-01T04:07:35;9.70;;;3.93;;
13592;SDS011;6867;50.998;4.250;2023-04-01T04:10:04;5.90;;;4.07;;
13592;SDS011;6867;50.998;4.250;2023-04-01T04:12:32;9.60;;;4.00;;
13592;SDS011;6867;50.998;4.250;2023-04-01T04:14:58;8.93;;;4.60;;
13592;SDS011;6867;50.998;4.250;2023-04-01T04:17:25;8.60;;;3.70;;
13592;SDS011;6867;50.998;4.250;2023-04-01T04:19:52;10.10;;;3.73;;
13592;SDS011;6867;50.998;4.250;2023-04-01T04:22:19;7.53;;;3.37;;
13592;SDS011;6867;50.998;4.250;2023-04-01T04:24:45;8.30;;;3.77;;
13592;SDS011;6867;50.998;4.250;2023-04-01T04:27:14;5.03;;;3.23;;
13592;SDS011;6867;50.998;4.250;2023-04-01T04:29:40;4.40;;;2.87;;
13592;SDS011;6867;50.998;4.250;2023-04-01T04:32:07;5.80;;;3.40;;
13592;SDS011;6867;50.998;4.250;2023-04-01T04:34:34;4.73;;;3.10;;
13592;SDS011;6867;50.998;4.250;2023-04-01T04:37:01;5.87;;;2.93;;
13592;SDS011;6867;50.998;4.250;2023-04-01T04:39:28;5.37;;;2.60;;
13592;SDS011;6867;50.998;4.250;2023-04-01T04:41:55;3.60;;;2.73;;
13592;SDS011;6867;50.998;4.250;2023-04-01T04:44:23;7.77;;;3.23;;
13592;SDS011;6867;50.998;4.250;2023-04-01T04:46:50;7.93;;;3.67;;
13592;SDS011;6867;50.998;4.250;2023-04-01T04:49:17;5.10;;;3.07;;
13592;SDS011;6867;50.998;4.250;2023-04-01T04:51:44;4.97;;;3.30;;
13592;SDS011;6867;50.998;4.250;2023-04-01T04:54:10;5.43;;;2.97;;
13592;SDS011;6867;50.998;4.250;2023-04-01T04:56:37;5.33;;;2.80;;
13592;SDS011;6867;50.998;4.250;2023-04-01T04:59:04;5.90;;;3.73;;
13592;SDS011;6867;50.998;4.250;2023-04-01T05:01:32;6.03;;;2.97;;
13592;SDS011;6867;50.998;4.250;2023-04-01T05:03:59;3.30;;;2.77;;
13592;SDS011;6867;50.998;4.250;2023-04-01T05:06:26;3.73;;;2.70;;
13592;SDS011;6867;50.998;4.250;2023-04-01T05:08:55;4.67;;;2.40;;
13592;SDS011;6867;50.998;4.250;2023-04-01T05:11:22;4.33;;;2.43;;
13592;SDS011;6867;50.998;4.250;2023-04-01T05:13:52;5.00;;;3.00;;
13592;SDS011;6867;50.998;4.250;2023-04-01T05:16:19;5.60;;;3.43;;
13592;SDS011;6867;50.998;4.250;2023-04-01T05:18:48;5.43;;;2.80;;
13592;SDS011;6867;50.998;4.250;2023-04-01T05:21:15;4.50;;;3.00;;
13592;SDS011;6867;50.998;4.250;2023-04-01T05:23:41;5.77;;;3.33;;
13592;SDS011;6867;50.998;4.250;2023-04-01T05:26:10;3.93;;;2.80;;
13592;SDS011;6867;50.998;4.250;2023-04-01T05:28:37;6.40;;;3.33;;
13592;SDS011;6867;50.998;4.250;2023-04-01T05:31:05;4.00;;;2.87;;
13592;SDS011;6867;50.998;4.250;2023-04-01T05:33:32;6.07;;;3.20;;
13592;SDS011;6867;50.998;4.250;2023-04-01T05:36:06;4.57;;;3.23;;
13592;SDS011;6867;50.998;4.250;2023-04-01T05:38:34;6.17;;;2.93;;
13592;SDS011;6867;50.998;4.250;2023-04-01T05:41:01;4.87;;;2.80;;
13592;SDS011;6867;50.998;4.250;2023-04-01T05:43:28;4.10;;;3.00;;
13592;SDS011;6867;50.998;4.250;2023-04-01T05:45:55;5.60;;;3.23;;
13592;SDS011;6867;50.998;4.250;2023-04-01T05:48:22;4.90;;;3.10;;
13592;SDS011;6867;50.998;4.250;2023-04-01T05:50:49;5.20;;;3.50;;
13592;SDS011;6867;50.998;4.250;2023-04-01T05:53:17;5.50;;;3.07;;
13592;SDS011;6867;50.998;4.250;2023-04-01T05:55:44;5.70;;;3.53;;
13592;SDS011;6867;50.998;4.250;2023-04-01T05:58:10;9.60;;;3.93;;
13592;SDS011;6867;50.998;4.250;2023-04-01T06:00:37;6.47;;;3.67;;
13592;SDS011;6867;50.998;4.250;2023-04-01T06:03:04;10.47;;;3.57;;
13592;SDS011;6867;50.998;4.250;2023-04-01T06:05:34;6.17;;;3.70;;
13592;SDS011;6867;50.998;4.250;2023-04-01T06:08:05;6.77;;;3.80;;
13592;SDS011;6867;50.998;4.250;2023-04-01T06:10:39;8.13;;;3.57;;
13592;SDS011;6867;50.998;4.250;2023-04-01T06:13:29;6.40;;;3.00;;
13592;SDS011;6867;50.998;4.250;2023-04-01T06:16:07;7.07;;;3.30;;
13592;SDS011;6867;50.998;4.250;2023-04-01T06:18:46;5.47;;;3.33;;
13592;SDS011;6867;50.998;4.250;2023-04-01T06:21:34;4.37;;;2.10;;
13592;SDS011;6867;50.998;4.250;2023-04-01T06:24:20;3.20;;;2.00;;
13592;SDS011;6867;50.998;4.250;2023-04-01T06:27:12;8.60;;;2.47;;
13592;SDS011;6867;50.998;4.250;2023-04-01T06:29:58;5.07;;;2.30;;
13592;SDS011;6867;50.998;4.250;2023-04-01T06:32:40;4.13;;;1.90;;
13592;SDS011;6867;50.998;4.250;2023-04-01T06:35:26;2.20;;;1.80;;
13592;SDS011;6867;50.998;4.250;2023-04-01T06:38:25;2.43;;;2.00;;
13592;SDS011;6867;50.998;4.250;2023-04-01T06:41:17;2.70;;;1.70;;
13592;SDS011;6867;50.998;4.250;2023-04-01T06:43:57;5.13;;;1.80;;
13592;SDS011;6867;50.998;4.250;2023-04-01T06:46:36;2.70;;;1.67;;
13592;SDS011;6867;50.998;4.250;2023-04-01T06:49:19;4.17;;;1.90;;
13592;SDS011;6867;50.998;4.250;2023-04-01T06:52:00;3.73;;;2.07;;
13592;SDS011;6867;50.998;4.250;2023-04-01T06:54:35;4.63;;;1.70;;
13592;SDS011;6867;50.998;4.250;2023-04-01T06:57:07;2.53;;;1.83;;
13592;SDS011;6867;50.998;4.250;2023-04-01T06:59:46;2.00;;;1.47;;
13592;SDS011;6867;50.998;4.250;2023-04-01T07:02:18;1.73;;;1.50;;
13592;SDS011;6867;50.998;4.250;2023-04-01T07:04:51;2.10;;;1.60;;
13592;SDS011;6867;50.998;4.250;2023-04-01T07:07:24;2.00;;;1.20;;
13592;SDS011;6867;50.998;4.250;2023-04-01T07:09:57;2.20;;;1.33;;
13592;SDS011;6867;50.998;4.250;2023-04-01T07:12:30;2.43;;;1.10;;
13592;SDS011;6867;50.998;4.250;2023-04-01T07:15:11;3.63;;;1.10;;
13592;SDS011;6867;50.998;4.250;2023-04-01T07:17:43;2.33;;;1.60;;
13592;SDS011;6867;50.998;4.250;2023-04-01T07:20:15;4.40;;;1.50;;
13592;SDS011;6867;50.998;4.250;2023-04-01T07:22:51;1.40;;;1.30;;
13592;SDS011;6867;50.998;4.250;2023-04-01T07:25:22;3.13;;;1.53;;
13592;SDS011;6867;50.998;4.250;2023-04-01T07:27:52;2.27;;;1.40;;
13592;SDS011;6867;50.998;4.250;2023-04-01T07:30:24;1.50;;;1.30;;
13592;SDS011;6867;50.998;4.250;2023-04-01T07:32:56;1.93;;;1.63;;
13592;SDS011;6867;50.998;4.250;2023-04-01T07:35:30;1.97;;;1.37;;
13592;SDS011;6867;50.998;4.250;2023-04-01T07:38:10;1.80;;;1.33;;
13592;SDS011;6867;50.998;4.250;2023-04-01T07:40:47;2.07;;;1.57;;
13592;SDS011;6867;50.998;4.250;2023-04-01T07:43:33;2.03;;;1.40;;
13592;SDS011;6867;50.998;4.250;2023-04-01T07:46:11;1.53;;;1.40;;
13592;SDS011;6867;50.998;4.250;2023-04-01T07:48:51;2.27;;;1.57;;
13592;SDS011;6867;50.998;4.250;2023-04-01T07:51:27;1.70;;;1.60;;
13592;SDS011;6867;50.998;4.250;2023-04-01T07:53:59;1.53;;;1.30;;
13592;SDS011;6867;50.998;4.250;2023-04-01T07:56:33;2.30;;;1.07;;
13592;SDS011;6867;50.998;4.250;2023-04-01T07:59:08;2.30;;;1.20;;
13592;SDS011;6867;50.998;4.250;2023-04-01T08:01:44;1.40;;;1.30;;
13592;SDS011;6867;50.998;4.250;2023-04-01T08:04:20;1.20;;;1.10;;
13592;SDS011;6867;50.998;4.250;2023-04-01T08:06:56;1.57;;;1.10;;
13592;SDS011;6867;50.998;4.250;2023-04-01T08:09:30;1.33;;;0.90;;
13592;SDS011;6867;50.998;4.250;2023-04-01T08:12:05;1.20;;;1.00;;
13592;SDS011;6867;50.998;4.250;2023-04-01T08:14:43;1.00;;;0.90;;
13592;SDS011;6867;50.998;4.250;2023-04-01T08:17:21;1.20;;;1.10;;
13592;SDS011;6867;50.998;4.250;2023-04-01T08:20:08;1.03;;;0.93;;
13592;SDS011;6867;50.998;4.250;2023-04-01T08:22:45;0.83;;;0.83;;
13592;SDS011;6867;50.998;4.250;2023-04-01T08:25:18;2.13;;;0.90;;
13592;SDS011;6867;50.998;4.250;2023-04-01T08:27:48;0.97;;;0.83;;
13592;SDS011;6867;50.998;4.250;2023-04-01T08:30:21;2.10;;;1.33;;
13592;SDS011;6867;50.998;4.250;2023-04-01T08:32:52;1.93;;;1.00;;
13592;SDS011;6867;50.998;4.250;2023-04-01T08:35:26;1.70;;;1.20;;
13592;SDS011;6867;50.998;4.250;2023-04-01T08:37:58;1.73;;;1.20;;
13592;SDS011;6867;50.998;4.250;2023-04-01T08:40:47;2.00;;;1.10;;
13592;SDS011;6867;50.998;4.250;2023-04-01T08:43:25;2.37;;;1.00;;
13592;SDS011;6867;50.998;4.250;2023-04-01T08:46:17;1.73;;;1.10;;
13592;SDS011;6867;50.998;4.250;2023-04-01T08:49:03;2.70;;;1.17;;
13592;SDS011;6867;50.998;4.250;2023-04-01T08:55:04;1.50;;;1.30;;
13592;SDS011;6867;50.998;4.250;2023-04-01T08:57:56;1.83;;;1.30;;
13592;SDS011;6867;50.998;4.250;2023-04-01T09:00:46;1.73;;;1.33;;
13592;SDS011;6867;50.998;4.250;2023-04-01T09:03:35;2.70;;;1.47;;
13592;SDS011;6867;50.998;4.250;2023-04-01T09:06:28;1.60;;;1.50;;
13592;SDS011;6867;50.998;4.250;2023-04-01T09:09:14;1.70;;;1.60;;
13592;SDS011;6867;50.998;4.250;2023-04-01T09:12:00;1.57;;;1.40;;
13592;SDS011;6867;50.998;4.250;2023-04-01T09:14:54;2.30;;;2.10;;
13592;SDS011;6867;50.998;4.250;2023-04-01T09:20:42;3.03;;;1.97;;
13592;SDS011;6867;50.998;4.250;2023-04-01T09:23:24;5.63;;;2.97;;
13592;SDS011;6867;50.998;4.250;2023-04-01T09:26:00;4.80;;;2.97;;
13592;SDS011;6867;50.998;4.250;2023-04-01T09:28:49;4.57;;;3.03;;
13592;SDS011;6867;50.998;4.250;2023-04-01T09:31:32;4.40;;;3.07;;
13592;SDS011;6867;50.998;4.250;2023-04-01T09:37:26;3.47;;;2.80;;
13592;SDS011;6867;50.998;4.250;2023-04-01T09:46:14;4.93;;;3.50;;
13592;SDS011;6867;50.998;4.250;2023-04-01T09:51:37;5.67;;;3.50;;
13592;SDS011;6867;50.998;4.250;2023-04-01T09:54:19;4.40;;;3.20;;
13592;SDS011;6867;50.998;4.250;2023-04-01T10:15:23;2.70;;;2.37;;
13592;SDS011;6867;50.998;4.250;2023-04-01T10:21:13;4.07;;;1.70;;
13592;SDS011;6867;50.998;4.250;2023-04-01T10:24:05;2.90;;;1.67;;
13592;SDS011;6867;50.998;4.250;2023-04-01T10:26:52;3.93;;;1.60;;
13592;SDS011;6867;50.998;4.250;2023-04-01T10:32:58;2.20;;;1.30;;
13592;SDS011;6867;50.998;4.250;2023-04-01T10:39:08;1.93;;;1.40;;
13592;SDS011;6867;50.998;4.250;2023-04-01T10:48:19;2.57;;;1.30;;
13592;SDS011;6867;50.998;4.250;2023-04-01T10:53:46;1.50;;;1.13;;
13592;SDS011;6867;50.998;4.250;2023-04-01T11:02:30;1.37;;;1.20;;
13592;SDS011;6867;50.998;4.250;2023-04-01T11:18:08;1.03;;;0.93;;
13592;SDS011;6867;50.998;4.250;2023-04-01T11:24:00;1.77;;;1.07;;
13592;SDS011;6867;50.998;4.250;2023-04-01T11:26:44;1.77;;;1.20;;
13592;SDS011;6867;50.998;4.250;2023-04-01T11:29:35;4.03;;;1.50;;
13592;SDS011;6867;50.998;4.250;2023-04-01T11:32:13;2.10;;;1.10;;
13592;SDS011;6867;50.998;4.250;2023-04-01T11:34:56;1.77;;;1.07;;
13592;SDS011;6867;50.998;4.250;2023-04-01T11:37:37;2.67;;;1.40;;
13592;SDS011;6867;50.998;4.250;2023-04-01T11:40:14;2.57;;;1.20;;
13592;SDS011;6867;50.998;4.250;2023-04-01T11:42:52;1.17;;;1.07;;
13592;SDS011;6867;50.998;4.250;2023-04-01T11:45:27;2.73;;;1.20;;
13592;SDS011;6867;50.998;4.250;2023-04-01T11:48:07;1.37;;;1.00;;
13592;SDS011;6867;50.998;4.250;2023-04-01T11:50:46;1.53;;;0.87;;
13592;SDS011;6867;50.998;4.250;2023-04-01T11:53:31;1.50;;;1.00;;
13592;SDS011;6867;50.998;4.250;2023-04-01T11:56:10;1.33;;;1.10;;
13592;SDS011;6867;50.998;4.250;2023-04-01T11:58:54;1.43;;;0.90;;
13592;SDS011;6867;50.998;4.250;2023-04-01T12:01:36;1.30;;;0.90;;
13592;SDS011;6867;50.998;4.250;2023-04-01T12:07:21;1.20;;;1.10;;
13592;SDS011;6867;50.998;4.250;2023-04-01T12:10:01;1.30;;;1.20;;
13592;SDS011;6867;50.998;4.250;2023-04-01T12:12:42;1.13;;;1.00;;
13592;SDS011;6867;50.998;4.250;2023-04-01T12:15:19;1.20;;;1.10;;
13592;SDS011;6867;50.998;4.250;2023-04-01T12:17:53;3.70;;;1.30;;
13592;SDS011;6867;50.998;4.250;2023-04-01T12:20:33;1.27;;;1.17;;
13592;SDS011;6867;50.998;4.250;2023-04-01T12:23:10;1.50;;;1.40;;
13592;SDS011;6867;50.998;4.250;2023-04-01T12:28:45;1.57;;;1.47;;
13592;SDS011;6867;50.998;4.250;2023-04-01T12:31:27;3.60;;;1.70;;
13592;SDS011;6867;50.998;4.250;2023-04-01T12:37:07;2.10;;;1.90;;
13592;SDS011;6867;50.998;4.250;2023-04-01T12:39:56;1.70;;;1.57;;
13592;SDS011;6867;50.998;4.250;2023-04-01T12:42:44;2.30;;;1.97;;
13592;SDS011;6867;50.998;4.250;2023-04-01T12:45:29;2.57;;;1.87;;
13592;SDS011;6867;50.998;4.250;2023-04-01T12:50:58;2.50;;;1.33;;
13592;SDS011;6867;50.998;4.250;2023-04-01T12:56:57;3.23;;;1.60;;
13592;SDS011;6867;50.998;4.250;2023-04-01T12:59:50;4.40;;;1.73;;
13592;SDS011;6867;50.998;4.250;2023-04-01T13:02:31;3.03;;;1.93;;
13592;SDS011;6867;50.998;4.250;2023-04-01T13:05:18;2.33;;;1.70;;
13592;SDS011;6867;50.998;4.250;2023-04-01T13:08:04;1.90;;;1.80;;
13592;SDS011;6867;50.998;4.250;2023-04-01T13:13:44;2.07;;;1.40;;
13592;SDS011;6867;50.998;4.250;2023-04-01T13:16:21;1.67;;;1.20;;
13592;SDS011;6867;50.998;4.250;2023-04-01T13:18:54;1.57;;;1.20;;
13592;SDS011;6867;50.998;4.250;2023-04-01T13:21:28;2.27;;;1.10;;
13592;SDS011;6867;50.998;4.250;2023-04-01T13:24:06;1.40;;;1.30;;
13592;SDS011;6867;50.998;4.250;2023-04-01T13:26:46;1.10;;;0.90;;
13592;SDS011;6867;50.998;4.250;2023-04-01T13:29:25;2.00;;;1.40;;
13592;SDS011;6867;50.998;4.250;2023-04-01T13:32:04;3.47;;;1.70;;
13592;SDS011;6867;50.998;4.250;2023-04-01T13:34:44;3.17;;;2.00;;
13592;SDS011;6867;50.998;4.250;2023-04-01T13:37:28;5.60;;;2.27;;
13592;SDS011;6867;50.998;4.250;2023-04-01T13:40:23;2.30;;;2.10;;
13592;SDS011;6867;50.998;4.250;2023-04-01T13:43:01;4.43;;;2.90;;
13592;SDS011;6867;50.998;4.250;2023-04-01T13:45:38;2.47;;;2.23;;
13592;SDS011;6867;50.998;4.250;2023-04-01T13:48:23;2.40;;;1.80;;
13592;SDS011;6867;50.998;4.250;2023-04-01T13:54:28;2.17;;;1.97;;
13592;SDS011;6867;50.998;4.250;2023-04-01T13:57:16;1.70;;;1.60;;
13592;SDS011;6867;50.998;4.250;2023-04-01T13:59:59;1.97;;;1.80;;
13592;SDS011;6867;50.998;4.250;2023-04-01T14:02:43;2.23;;;1.43;;
13592;SDS011;6867;50.998;4.250;2023-04-01T14:05:28;2.00;;;1.80;;
13592;SDS011;6867;50.998;4.250;2023-04-01T14:08:17;4.60;;;2.53;;
13592;SDS011;6867;50.998;4.250;2023-04-01T14:10:58;2.73;;;2.43;;
13592;SDS011;6867;50.998;4.250;2023-04-01T14:13:38;3.77;;;2.90;;
13592;SDS011;6867;50.998;4.250;2023-04-01T14:16:18;3.33;;;2.43;;
13592;SDS011;6867;50.998;4.250;2023-04-01T14:19:02;2.97;;;1.50;;
13592;SDS011;6867;50.998;4.250;2023-04-01T14:21:38;1.80;;;1.40;;
13592;SDS011;6867;50.998;4.250;2023-04-01T14:24:24;1.63;;;1.33;;
13592;SDS011;6867;50.998;4.250;2023-04-01T14:30:25;1.47;;;1.13;;
13592;SDS011;6867;50.998;4.250;2023-04-01T14:33:04;4.13;;;1.27;;
13592;SDS011;6867;50.998;4.250;2023-04-01T14:35:44;1.90;;;1.10;;
13592;SDS011;6867;50.998;4.250;2023-04-01T14:41:16;1.67;;;1.10;;
13592;SDS011;6867;50.998;4.250;2023-04-01T14:43:55;1.43;;;1.20;;
13592;SDS011;6867;50.998;4.250;2023-04-01T14:46:53;1.77;;;1.47;;
13592;SDS011;6867;50.998;4.250;2023-04-01T14:49:35;1.80;;;1.50;;
13592;SDS011;6867;50.998;4.250;2023-04-01T14:52:09;1.47;;;1.07;;
13592;SDS011;6867;50.998;4.250;2023-04-01T14:54:41;1.07;;;0.87;;
13592;SDS011;6867;50.998;4.250;2023-04-01T14:57:11;1.00;;;1.00;;
13592;SDS011;6867;50.998;4.250;2023-04-01T14:59:39;4.23;;;1.30;;
13592;SDS011;6867;50.998;4.250;2023-04-01T15:02:10;1.20;;;1.10;;
13592;SDS011;6867;50.998;4.250;2023-04-01T15:04:54;1.00;;;1.00;;
13592;SDS011;6867;50.998;4.250;2023-04-01T15:10:45;1.90;;;1.60;;
13592;SDS011;6867;50.998;4.250;2023-04-01T15:13:24;1.80;;;1.57;;
13592;SDS011;6867;50.998;4.250;2023-04-01T15:16:06;1.77;;;1.50;;
13592;SDS011;6867;50.998;4.250;2023-04-01T15:18:42;1.63;;;1.33;;
13592;SDS011;6867;50.998;4.250;2023-04-01T15:21:18;2.23;;;1.73;;
13592;SDS011;6867;50.998;4.250;2023-04-01T15:23:53;2.87;;;2.10;;
13592;SDS011;6867;50.998;4.250;2023-04-01T15:26:56;4.17;;;2.30;;
13592;SDS011;6867;50.998;4.250;2023-04-01T15:29:46;2.40;;;1.80;;
13592;SDS011;6867;50.998;4.250;2023-04-01T15:32:27;1.87;;;1.50;;
13592;SDS011;6867;50.998;4.250;2023-04-01T15:35:08;3.33;;;1.53;;
13592;SDS011;6867;50.998;4.250;2023-04-01T15:37:48;1.93;;;1.20;;
13592;SDS011;6867;50.998;4.250;2023-04-01T15:40:22;2.00;;;1.30;;
13592;SDS011;6867;50.998;4.250;2023-04-01T15:43:02;3.70;;;1.17;;
13592;SDS011;6867;50.998;4.250;2023-04-01T15:45:39;2.70;;;1.30;;
13592;SDS011;6867;50.998;4.250;2023-04-01T15:48:16;1.50;;;1.20;;
13592;SDS011;6867;50.998;4.250;2023-04-01T15:51:02;3.83;;;2.03;;
13592;SDS011;6867;50.998;4.250;2023-04-01T15:53:44;2.33;;;1.33;;
13592;SDS011;6867;50.998;4.250;2023-04-01T15:56:23;1.63;;;1.53;;
13592;SDS011;6867;50.998;4.250;2023-04-01T15:58:59;2.43;;;1.80;;
13592;SDS011;6867;50.998;4.250;2023-04-01T16:01:35;3.23;;;1.30;;
13592;SDS011;6867;50.998;4.250;2023-04-01T16:04:17;1.30;;;1.20;;
13592;SDS011;6867;50.998;4.250;2023-04-01T16:07:10;1.63;;;1.30;;
13592;SDS011;6867;50.998;4.250;2023-04-01T16:09:50;1.40;;;1.30;;
13592;SDS011;6867;50.998;4.250;2023-04-01T16:12:31;2.33;;;1.40;;
13592;SDS011;6867;50.998;4.250;2023-04-01T16:15:12;1.83;;;1.70;;
13592;SDS011;6867;50.998;4.250;2023-04-01T16:17:55;1.97;;;1.70;;
13592;SDS011;6867;50.998;4.250;2023-04-01T16:20:41;2.93;;;1.93;;
13592;SDS011;6867;50.998;4.250;2023-04-01T16:23:13;2.10;;;1.83;;
13592;SDS011;6867;50.998;4.250;2023-04-01T16:25:49;5.23;;;2.70;;
13592;SDS011;6867;50.998;4.250;2023-04-01T16:28:24;3.93;;;2.80;;
13592;SDS011;6867;50.998;4.250;2023-04-01T16:30:59;4.30;;;2.90;;
13592;SDS011;6867;50.998;4.250;2023-04-01T16:33:35;2.93;;;2.60;;
13592;SDS011;6867;50.998;4.250;2023-04-01T16:36:09;3.53;;;2.40;;
13592;SDS011;6867;50.998;4.250;2023-04-01T16:38:46;3.77;;;2.80;;
13592;SDS011;6867;50.998;4.250;2023-04-01T16:41:17;3.90;;;2.90;;
13592;SDS011;6867;50.998;4.250;2023-04-01T16:43:48;4.53;;;3.13;;
13592;SDS011;6867;50.998;4.250;2023-04-01T16:46:28;4.57;;;2.50;;
13592;SDS011;6867;50.998;4.250;2023-04-01T16:49:17;3.17;;;2.37;;
13592;SDS011;6867;50.998;4.250;2023-04-01T16:51:57;2.23;;;2.03;;
13592;SDS011;6867;50.998;4.250;2023-04-01T16:54:39;2.53;;;2.33;;
13592;SDS011;6867;50.998;4.250;2023-04-01T16:57:15;2.27;;;2.00;;
13592;SDS011;6867;50.998;4.250;2023-04-01T16:59:46;3.27;;;2.70;;
13592;SDS011;6867;50.998;4.250;2023-04-01T17:02:22;2.77;;;2.57;;
13592;SDS011;6867;50.998;4.250;2023-04-01T17:04:53;3.53;;;2.60;;
13592;SDS011;6867;50.998;4.250;2023-04-01T17:07:27;2.90;;;2.50;;
13592;SDS011;6867;50.998;4.250;2023-04-01T17:10:10;3.50;;;2.87;;
13592;SDS011;6867;50.998;4.250;2023-04-01T17:13:01;3.77;;;2.80;;
13592;SDS011;6867;50.998;4.250;2023-04-01T17:15:38;4.60;;;2.83;;
13592;SDS011;6867;50.998;4.250;2023-04-01T17:18:14;3.37;;;2.73;;
13592;SDS011;6867;50.998;4.250;2023-04-01T17:20:53;3.20;;;2.90;;
13592;SDS011;6867;50.998;4.250;2023-04-01T17:23:27;3.47;;;3.00;;
13592;SDS011;6867;50.998;4.250;2023-04-01T17:26:03;3.13;;;2.83;;
13592;SDS011;6867;50.998;4.250;2023-04-01T17:28:43;2.93;;;2.70;;
13592;SDS011;6867;50.998;4.250;2023-04-01T17:31:17;6.17;;;3.33;;
13592;SDS011;6867;50.998;4.250;2023-04-01T17:34:01;3.63;;;3.33;;
13592;SDS011;6867;50.998;4.250;2023-04-01T17:36:52;4.03;;;3.47;;
13592;SDS011;6867;50.998;4.250;2023-04-01T17:39:33;3.80;;;3.50;;
13592;SDS011;6867;50.998;4.250;2023-04-01T17:42:11;4.30;;;3.37;;